sensor_id;sensor_type;location;lat;lon;timestamp;pressure;altitude;pressure_sealevel;temperature;humidity
62418;BME280;48456;54.242;10.280;2022-12-18T00:01:30;102685.06;;;-8.04;100.00
62418;BME280;48456;54.242;10.280;2022-12-18T00:03:57;102682.78;;;-8.10;100.00
62418;BME280;48456;54.242;10.280;2022-12-18T00:06:24;102686.38;;;-8.17;100.00
62418;BME280;48456;54.242;10.280;2022-12-18T00:08:51;102690.63;;;-8.17;100.00
62418;BME280;48456;54.242;10.280;2022-12-18T00:11:19;102690.03;;;-8.15;100.00
62418;BME280;48456;54.242;10.280;2022-12-18T00:13:46;102683.97;;;-8.15;100.00
62418;BME280;48456;54.242;10.280;2022-12-18T00:16:13;102686.72;;;-8.14;100.00
62418;BME280;48456;54.242;10.280;2022-12-18T00:18:40;102687.31;;;-8.16;100.00
62418;BME280;48456;54.242;10.280;2022-12-18T00:21:09;102683.50;;;-8.20;100.00
62418;BME280;48456;54.242;10.280;2022-12-18T00:23:36;102694.66;;;-8.28;100.00
62418;BME280;48456;54.242;10.280;2022-12-18T00:26:06;102695.56;;;-8.28;100.00
62418;BME280;48456;54.242;10.280;2022-12-18T00:28:32;102699.47;;;-8.31;100.00
62418;BME280;48456;54.242;10.280;2022-12-18T00:31:06;102700.97;;;-8.33;100.00
62418;BME280;48456;54.242;10.280;2022-12-18T00:33:33;102702.06;;;-8.23;100.00
62418;BME280;48456;54.242;10.280;2022-12-18T00:38:29;102707.31;;;-8.05;100.00
62418;BME280;48456;54.242;10.280;2022-12-18T00:40:55;102698.66;;;-8.05;100.00
62418;BME280;48456;54.242;10.280;2022-12-18T00:43:21;102690.19;;;-8.13;100.00
62418;BME280;48456;54.242;10.280;2022-12-18T00:45:47;102690.47;;;-8.19;100.00
62418;BME280;48456;54.242;10.280;2022-12-18T00:48:14;102695.56;;;-8.28;100.00
62418;BME280;48456;54.242;10.280;2022-12-18T00:50:40;102695.53;;;-8.37;100.00
62418;BME280;48456;54.242;10.280;2022-12-18T00:53:07;102697.88;;;-8.47;100.00
62418;BME280;48456;54.242;10.280;2022-12-18T00:55:33;102691.66;;;-8.58;100.00
62418;BME280;48456;54.242;10.280;2022-12-18T00:57:59;102680.06;;;-8.54;100.00
62418;BME280;48456;54.242;10.280;2022-12-18T01:00:25;102677.06;;;-8.41;100.00
62418;BME280;48456;54.242;10.280;2022-12-18T01:02:52;102687.84;;;-8.28;100.00
62418;BME280;48456;54.242;10.280;2022-12-18T01:05:18;102687.47;;;-8.15;100.00
62418;BME280;48456;54.242;10.280;2022-12-18T01:07:45;102687.91;;;-8.10;100.00
62418;BME280;48456;54.242;10.280;2022-12-18T01:10:11;102693.50;;;-8.14;100.00
62418;BME280;48456;54.242;10.280;2022-12-18T01:12:38;102705.72;;;-8.20;100.00
62418;BME280;48456;54.242;10.280;2022-12-18T01:15:05;102700.91;;;-8.17;100.00
62418;BME280;48456;54.242;10.280;2022-12-18T01:17:32;102704.84;;;-8.12;100.00
62418;BME280;48456;54.242;10.280;2022-12-18T01:19:58;102704.72;;;-8.05;100.00
62418;BME280;48456;54.242;10.280;2022-12-18T01:22:25;102702.78;;;-7.99;100.00
62418;BME280;48456;54.242;10.280;2022-12-18T01:24:51;102706.38;;;-7.97;100.00
62418;BME280;48456;54.242;10.280;2022-12-18T01:27:17;102693.88;;;-7.93;100.00
62418;BME280;48456;54.242;10.280;2022-12-18T01:29:44;102695.53;;;-7.94;100.00
62418;BME280;48456;54.242;10.280;2022-12-18T01:32:10;102703.38;;;-7.92;100.00
62418;BME280;48456;54.242;10.280;2022-12-18T01:34:36;102701.56;;;-7.93;100.00
62418;BME280;48456;54.242;10.280;2022-12-18T01:37:04;102704.75;;;-7.96;100.00
62418;BME280;48456;54.242;10.280;2022-12-18T01:39:31;102717.25;;;-7.99;100.00
62418;BME280;48456;54.242;10.280;2022-12-18T01:42:19;102742.06;;;-8.00;100.00
62418;BME280;48456;54.242;10.280;2022-12-18T01:45:01;102742.66;;;-8.02;100.00
62418;BME280;48456;54.242;10.280;2022-12-18T01:49:57;102754.69;;;-8.10;100.00
62418;BME280;48456;54.242;10.280;2022-12-18T01:52:25;102760.75;;;-8.10;100.00
62418;BME280;48456;54.242;10.280;2022-12-18T01:54:52;102756.97;;;-8.13;100.00
62418;BME280;48456;54.242;10.280;2022-12-18T01:57:19;102749.56;;;-8.10;100.00
62418;BME280;48456;54.242;10.280;2022-12-18T01:59:47;102746.25;;;-8.09;100.00
62418;BME280;48456;54.242;10.280;2022-12-18T02:02:16;102749.88;;;-8.07;100.00
62418;BME280;48456;54.242;10.280;2022-12-18T02:04:43;102749.13;;;-8.06;100.00
62418;BME280;48456;54.242;10.280;2022-12-18T02:09:48;102737.47;;;-8.11;100.00
62418;BME280;48456;54.242;10.280;2022-12-18T02:12:23;102742.84;;;-8.26;100.00
62418;BME280;48456;54.242;10.280;2022-12-18T02:15:00;102753.84;;;-8.27;100.00
62418;BME280;48456;54.242;10.280;2022-12-18T02:17:52;102746.44;;;-8.32;100.00
62418;BME280;48456;54.242;10.280;2022-12-18T02:20:27;102750.66;;;-8.33;100.00
62418;BME280;48456;54.242;10.280;2022-12-18T02:23:04;102748.44;;;-8.30;100.00
62418;BME280;48456;54.242;10.280;2022-12-18T02:28:17;102759.81;;;-8.19;100.00
62418;BME280;48456;54.242;10.280;2022-12-18T02:30:47;102756.00;;;-8.23;100.00
62418;BME280;48456;54.242;10.280;2022-12-18T02:33:14;102758.44;;;-8.24;100.00
62418;BME280;48456;54.242;10.280;2022-12-18T02:35:41;102758.25;;;-8.26;100.00
62418;BME280;48456;54.242;10.280;2022-12-18T02:38:09;102752.03;;;-8.28;100.00
62418;BME280;48456;54.242;10.280;2022-12-18T02:40:35;102752.81;;;-8.29;100.00
62418;BME280;48456;54.242;10.280;2022-12-18T02:43:09;102749.91;;;-8.32;100.00
62418;BME280;48456;54.242;10.280;2022-12-18T02:45:37;102765.47;;;-8.30;100.00
62418;BME280;48456;54.242;10.280;2022-12-18T02:48:03;102756.13;;;-8.30;100.00
62418;BME280;48456;54.242;10.280;2022-12-18T02:55:54;102759.72;;;-8.37;100.00
62418;BME280;48456;54.242;10.280;2022-12-18T03:01:09;102772.66;;;-8.44;100.00
62418;BME280;48456;54.242;10.280;2022-12-18T03:03:39;102768.88;;;-8.48;100.00
62418;BME280;48456;54.242;10.280;2022-12-18T03:06:08;102765.22;;;-8.50;100.00
62418;BME280;48456;54.242;10.280;2022-12-18T03:08:37;102766.72;;;-8.52;100.00
62418;BME280;48456;54.242;10.280;2022-12-18T03:11:05;102771.56;;;-8.55;100.00
62418;BME280;48456;54.242;10.280;2022-12-18T03:13:33;102769.00;;;-8.55;100.00
62418;BME280;48456;54.242;10.280;2022-12-18T03:16:02;102779.25;;;-8.55;100.00
62418;BME280;48456;54.242;10.280;2022-12-18T03:18:35;102761.72;;;-8.59;100.00
62418;BME280;48456;54.242;10.280;2022-12-18T03:21:04;102755.50;;;-8.61;100.00
62418;BME280;48456;54.242;10.280;2022-12-18T03:23:39;102754.59;;;-8.62;100.00
62418;BME280;48456;54.242;10.280;2022-12-18T03:26:07;102756.09;;;-8.64;100.00
62418;BME280;48456;54.242;10.280;2022-12-18T03:28:36;102754.28;;;-8.65;100.00
62418;BME280;48456;54.242;10.280;2022-12-18T03:31:05;102755.03;;;-8.66;100.00
62418;BME280;48456;54.242;10.280;2022-12-18T03:33:47;102749.16;;;-8.65;100.00
62418;BME280;48456;54.242;10.280;2022-12-18T03:36:17;102744.78;;;-8.66;100.00
62418;BME280;48456;54.242;10.280;2022-12-18T03:38:43;102751.88;;;-8.63;100.00
62418;BME280;48456;54.242;10.280;2022-12-18T03:46:28;102754.59;;;-8.62;100.00
62418;BME280;48456;54.242;10.280;2022-12-18T03:49:06;102750.94;;;-8.64;100.00
62418;BME280;48456;54.242;10.280;2022-12-18T03:51:37;102749.63;;;-8.60;100.00
62418;BME280;48456;54.242;10.280;2022-12-18T03:54:06;102745.91;;;-8.55;100.00
62418;BME280;48456;54.242;10.280;2022-12-18T03:56:38;102740.94;;;-8.53;100.00
62418;BME280;48456;54.242;10.280;2022-12-18T03:59:06;102742.25;;;-8.57;100.00
62418;BME280;48456;54.242;10.280;2022-12-18T04:01:35;102744.50;;;-8.60;100.00
62418;BME280;48456;54.242;10.280;2022-12-18T04:04:04;102747.22;;;-8.58;100.00
62418;BME280;48456;54.242;10.280;2022-12-18T04:06:31;102748.13;;;-8.58;100.00
62418;BME280;48456;54.242;10.280;2022-12-18T04:08:58;102747.53;;;-8.55;100.00
62418;BME280;48456;54.242;10.280;2022-12-18T04:11:24;102743.00;;;-8.58;100.00
62418;BME280;48456;54.242;10.280;2022-12-18T04:13:52;102734.25;;;-8.60;100.00
62418;BME280;48456;54.242;10.280;2022-12-18T04:16:21;102738.28;;;-8.62;100.00
62418;BME280;48456;54.242;10.280;2022-12-18T04:18:47;102732.56;;;-8.59;100.00
62418;BME280;48456;54.242;10.280;2022-12-18T04:21:16;102737.53;;;-8.61;100.00
62418;BME280;48456;54.242;10.280;2022-12-18T04:23:42;102735.72;;;-8.62;100.00
62418;BME280;48456;54.242;10.280;2022-12-18T04:26:08;102734.25;;;-8.60;100.00
62418;BME280;48456;54.242;10.280;2022-12-18T04:28:35;102737.44;;;-8.54;100.00
62418;BME280;48456;54.242;10.280;2022-12-18T04:31:01;102745.44;;;-8.51;100.00
62418;BME280;48456;54.242;10.280;2022-12-18T04:33:28;102761.88;;;-8.49;100.00
62418;BME280;48456;54.242;10.280;2022-12-18T04:35:54;102766.44;;;-8.46;100.00
62418;BME280;48456;54.242;10.280;2022-12-18T04:38:21;102771.44;;;-8.48;100.00
62418;BME280;48456;54.242;10.280;2022-12-18T04:40:47;102774.00;;;-8.48;100.00
62418;BME280;48456;54.242;10.280;2022-12-18T04:43:13;102773.06;;;-8.48;100.00
62418;BME280;48456;54.242;10.280;2022-12-18T04:45:40;102780.63;;;-8.50;100.00
62418;BME280;48456;54.242;10.280;2022-12-18T04:48:06;102778.03;;;-8.50;100.00
62418;BME280;48456;54.242;10.280;2022-12-18T04:50:32;102785.16;;;-8.47;100.00
62418;BME280;48456;54.242;10.280;2022-12-18T04:52:59;102792.84;;;-8.47;100.00
62418;BME280;48456;54.242;10.280;2022-12-18T04:55:25;102784.69;;;-8.52;100.00
62418;BME280;48456;54.242;10.280;2022-12-18T04:57:52;102787.84;;;-8.54;100.00
62418;BME280;48456;54.242;10.280;2022-12-18T05:00:18;102786.78;;;-8.56;100.00
62418;BME280;48456;54.242;10.280;2022-12-18T05:02:45;102776.44;;;-8.65;100.00
62418;BME280;48456;54.242;10.280;2022-12-18T05:05:11;102779.44;;;-8.69;100.00
62418;BME280;48456;54.242;10.280;2022-12-18T05:07:38;102777.78;;;-8.69;100.00
62418;BME280;48456;54.242;10.280;2022-12-18T05:10:04;102774.22;;;-8.62;100.00
62418;BME280;48456;54.242;10.280;2022-12-18T05:12:31;102775.31;;;-8.60;100.00
62418;BME280;48456;54.242;10.280;2022-12-18T05:14:57;102783.13;;;-8.58;100.00
62418;BME280;48456;54.242;10.280;2022-12-18T05:17:24;102794.31;;;-8.58;100.00
62418;BME280;48456;54.242;10.280;2022-12-18T05:19:50;102803.84;;;-8.57;100.00
62418;BME280;48456;54.242;10.280;2022-12-18T05:22:16;102802.34;;;-8.55;100.00
62418;BME280;48456;54.242;10.280;2022-12-18T05:24:43;102796.47;;;-8.54;100.00
62418;BME280;48456;54.242;10.280;2022-12-18T05:27:09;102795.25;;;-8.57;100.00
62418;BME280;48456;54.242;10.280;2022-12-18T05:29:35;102798.53;;;-8.58;100.00
62418;BME280;48456;54.242;10.280;2022-12-18T05:32:02;102785.88;;;-8.57;100.00
62418;BME280;48456;54.242;10.280;2022-12-18T05:34:28;102787.72;;;-8.56;100.00
62418;BME280;48456;54.242;10.280;2022-12-18T05:36:54;102800.53;;;-8.56;100.00
62418;BME280;48456;54.242;10.280;2022-12-18T05:39:21;102791.75;;;-8.58;100.00
62418;BME280;48456;54.242;10.280;2022-12-18T05:41:47;102793.72;;;-8.55;100.00
62418;BME280;48456;54.242;10.280;2022-12-18T05:44:13;102797.97;;;-8.56;100.00
62418;BME280;48456;54.242;10.280;2022-12-18T05:46:40;102794.50;;;-8.56;100.00
62418;BME280;48456;54.242;10.280;2022-12-18T05:49:07;102794.31;;;-8.58;100.00
62418;BME280;48456;54.242;10.280;2022-12-18T05:51:33;102794.91;;;-8.61;100.00
62418;BME280;48456;54.242;10.280;2022-12-18T05:53:59;102803.19;;;-8.63;100.00
62418;BME280;48456;54.242;10.280;2022-12-18T05:56:26;102803.97;;;-8.64;100.00
62418;BME280;48456;54.242;10.280;2022-12-18T05:58:52;102801.38;;;-8.64;100.00
62418;BME280;48456;54.242;10.280;2022-12-18T06:01:20;102797.16;;;-8.64;100.00
62418;BME280;48456;54.242;10.280;2022-12-18T06:03:47;102804.69;;;-8.65;100.00
62418;BME280;48456;54.242;10.280;2022-12-18T06:08:40;102811.31;;;-8.67;100.00
62418;BME280;48456;54.242;10.280;2022-12-18T06:11:11;102821.59;;;-8.67;100.00
62418;BME280;48456;54.242;10.280;2022-12-18T06:13:38;102815.94;;;-8.72;100.00
62418;BME280;48456;54.242;10.280;2022-12-18T06:16:05;102807.78;;;-8.77;100.00
62418;BME280;48456;54.242;10.280;2022-12-18T06:18:32;102810.19;;;-8.78;100.00
62418;BME280;48456;54.242;10.280;2022-12-18T06:20:59;102808.19;;;-8.81;100.00
62418;BME280;48456;54.242;10.280;2022-12-18T06:23:25;102811.47;;;-8.82;100.00
62418;BME280;48456;54.242;10.280;2022-12-18T06:25:52;102817.03;;;-8.86;100.00
62418;BME280;48456;54.242;10.280;2022-12-18T06:28:18;102814.91;;;-8.90;100.00
62418;BME280;48456;54.242;10.280;2022-12-18T06:30:46;102808.53;;;-8.94;100.00
62418;BME280;48456;54.242;10.280;2022-12-18T06:33:12;102826.13;;;-8.97;100.00
62418;BME280;48456;54.242;10.280;2022-12-18T06:35:39;102829.28;;;-9.00;100.00
62418;BME280;48456;54.242;10.280;2022-12-18T06:38:05;102830.44;;;-9.05;100.00
62418;BME280;48456;54.242;10.280;2022-12-18T06:40:31;102828.47;;;-9.07;100.00
62418;BME280;48456;54.242;10.280;2022-12-18T06:42:58;102829.94;;;-9.09;100.00
62418;BME280;48456;54.242;10.280;2022-12-18T06:45:24;102832.50;;;-9.09;100.00
62418;BME280;48456;54.242;10.280;2022-12-18T06:47:50;102823.75;;;-9.11;100.00
62418;BME280;48456;54.242;10.280;2022-12-18T06:50:17;102832.19;;;-9.13;100.00
62418;BME280;48456;54.242;10.280;2022-12-18T06:52:43;102838.78;;;-9.15;100.00
62418;BME280;48456;54.242;10.280;2022-12-18T06:55:10;102846.47;;;-9.15;100.00
62418;BME280;48456;54.242;10.280;2022-12-18T06:57:37;102838.63;;;-9.16;100.00
62418;BME280;48456;54.242;10.280;2022-12-18T07:00:04;102835.00;;;-9.18;100.00
62418;BME280;48456;54.242;10.280;2022-12-18T07:02:32;102843.28;;;-9.21;100.00
62418;BME280;48456;54.242;10.280;2022-12-18T07:04:58;102848.75;;;-9.18;100.00
62418;BME280;48456;54.242;10.280;2022-12-18T07:07:25;102853.69;;;-9.19;100.00
62418;BME280;48456;54.242;10.280;2022-12-18T07:09:51;102848.41;;;-9.21;100.00
62418;BME280;48456;54.242;10.280;2022-12-18T07:12:18;102844.91;;;-9.21;100.00
62418;BME280;48456;54.242;10.280;2022-12-18T07:14:44;102853.00;;;-9.26;100.00
62418;BME280;48456;54.242;10.280;2022-12-18T07:17:10;102848.69;;;-9.34;100.00
62418;BME280;48456;54.242;10.280;2022-12-18T07:19:37;102851.50;;;-9.40;100.00
62418;BME280;48456;54.242;10.280;2022-12-18T07:22:03;102859.03;;;-9.41;100.00
62418;BME280;48456;54.242;10.280;2022-12-18T07:24:29;102857.53;;;-9.39;100.00
62418;BME280;48456;54.242;10.280;2022-12-18T07:26:56;102870.88;;;-9.34;100.00
62418;BME280;48456;54.242;10.280;2022-12-18T07:29:22;102876.31;;;-9.31;100.00
62418;BME280;48456;54.242;10.280;2022-12-18T07:31:48;102876.16;;;-9.33;100.00
62418;BME280;48456;54.242;10.280;2022-12-18T07:34:15;102871.94;;;-9.32;100.00
62418;BME280;48456;54.242;10.280;2022-12-18T07:36:42;102881.03;;;-9.27;100.00
62418;BME280;48456;54.242;10.280;2022-12-18T07:39:10;102883.03;;;-9.24;100.00
62418;BME280;48456;54.242;10.280;2022-12-18T07:41:36;102890.16;;;-9.22;100.00
62418;BME280;48456;54.242;10.280;2022-12-18T07:44:10;102902.41;;;-9.19;100.00
62418;BME280;48456;54.242;10.280;2022-12-18T07:46:36;102907.53;;;-9.19;100.00
62418;BME280;48456;54.242;10.280;2022-12-18T07:49:03;102909.34;;;-9.18;100.00
62418;BME280;48456;54.242;10.280;2022-12-18T07:51:29;102911.00;;;-9.19;100.00
62418;BME280;48456;54.242;10.280;2022-12-18T07:53:56;102912.97;;;-9.16;100.00
62418;BME280;48456;54.242;10.280;2022-12-18T07:56:22;102906.38;;;-9.14;100.00
62418;BME280;48456;54.242;10.280;2022-12-18T07:58:55;102917.72;;;-9.12;100.00
62418;BME280;48456;54.242;10.280;2022-12-18T08:01:21;102913.31;;;-9.13;100.00
62418;BME280;48456;54.242;10.280;2022-12-18T08:03:48;102916.06;;;-9.11;100.00
62418;BME280;48456;54.242;10.280;2022-12-18T08:06:17;102914.72;;;-9.08;100.00
62418;BME280;48456;54.242;10.280;2022-12-18T08:08:43;102913.84;;;-9.08;100.00
62418;BME280;48456;54.242;10.280;2022-12-18T08:11:10;102913.25;;;-9.06;100.00
62418;BME280;48456;54.242;10.280;2022-12-18T08:13:36;102905.91;;;-9.03;100.00
62418;BME280;48456;54.242;10.280;2022-12-18T08:16:05;102906.22;;;-9.00;100.00
62418;BME280;48456;54.242;10.280;2022-12-18T08:18:32;102913.50;;;-8.95;100.00
62418;BME280;48456;54.242;10.280;2022-12-18T08:21:06;102910.22;;;-8.94;100.00
62418;BME280;48456;54.242;10.280;2022-12-18T08:23:33;102904.84;;;-8.89;100.00
62418;BME280;48456;54.242;10.280;2022-12-18T08:26:05;102894.00;;;-8.86;100.00
62418;BME280;48456;54.242;10.280;2022-12-18T08:28:32;102891.94;;;-8.81;100.00
62418;BME280;48456;54.242;10.280;2022-12-18T08:30:59;102897.00;;;-8.74;100.00
62418;BME280;48456;54.242;10.280;2022-12-18T08:33:26;102905.03;;;-8.71;100.00
62418;BME280;48456;54.242;10.280;2022-12-18T08:35:52;102899.63;;;-8.65;100.00
62418;BME280;48456;54.242;10.280;2022-12-18T08:38:19;102896.47;;;-8.63;100.00
62418;BME280;48456;54.242;10.280;2022-12-18T08:40:45;102896.22;;;-8.57;100.00
62418;BME280;48456;54.242;10.280;2022-12-18T08:43:11;102889.44;;;-8.56;100.00
62418;BME280;48456;54.242;10.280;2022-12-18T08:45:56;102891.75;;;-8.51;100.00
62418;BME280;48456;54.242;10.280;2022-12-18T08:48:23;102889.50;;;-8.48;100.00
62418;BME280;48456;54.242;10.280;2022-12-18T08:50:56;102883.97;;;-8.43;100.00
62418;BME280;48456;54.242;10.280;2022-12-18T08:53:23;102878.38;;;-8.39;100.00
62418;BME280;48456;54.242;10.280;2022-12-18T08:55:50;102885.97;;;-8.32;100.00
62418;BME280;48456;54.242;10.280;2022-12-18T08:58:16;102882.66;;;-8.31;100.00
62418;BME280;48456;54.242;10.280;2022-12-18T09:00:43;102873.47;;;-8.29;100.00
62418;BME280;48456;54.242;10.280;2022-12-18T09:03:11;102888.47;;;-8.25;100.00
62418;BME280;48456;54.242;10.280;2022-12-18T09:05:37;102888.63;;;-8.23;100.00
62418;BME280;48456;54.242;10.280;2022-12-18T09:08:04;102893.19;;;-8.20;100.00
62418;BME280;48456;54.242;10.280;2022-12-18T09:10:30;102895.50;;;-8.15;100.00
62418;BME280;48456;54.242;10.280;2022-12-18T09:12:56;102898.53;;;-8.10;100.00
62418;BME280;48456;54.242;10.280;2022-12-18T09:15:23;102907.31;;;-8.08;100.00
62418;BME280;48456;54.242;10.280;2022-12-18T09:17:49;102908.72;;;-8.03;100.00
62418;BME280;48456;54.242;10.280;2022-12-18T09:20:16;102901.63;;;-7.97;100.00
62418;BME280;48456;54.242;10.280;2022-12-18T09:22:43;102895.81;;;-7.87;100.00
62418;BME280;48456;54.242;10.280;2022-12-18T09:25:09;102903.41;;;-7.79;100.00
62418;BME280;48456;54.242;10.280;2022-12-18T09:27:36;102889.97;;;-7.77;100.00
62418;BME280;48456;54.242;10.280;2022-12-18T09:30:02;102899.22;;;-7.70;100.00
62418;BME280;48456;54.242;10.280;2022-12-18T09:32:29;102893.81;;;-7.64;100.00
62418;BME280;48456;54.242;10.280;2022-12-18T09:34:55;102892.47;;;-7.61;100.00
62418;BME280;48456;54.242;10.280;2022-12-18T09:37:21;102893.72;;;-7.57;100.00
62418;BME280;48456;54.242;10.280;2022-12-18T09:39:47;102901.28;;;-7.50;100.00
62418;BME280;48456;54.242;10.280;2022-12-18T09:42:20;102901.78;;;-7.45;100.00
62418;BME280;48456;54.242;10.280;2022-12-18T09:44:50;102905.72;;;-7.40;100.00
62418;BME280;48456;54.242;10.280;2022-12-18T09:47:20;102901.06;;;-7.35;100.00
62418;BME280;48456;54.242;10.280;2022-12-18T09:49:50;102905.94;;;-7.29;100.00
62418;BME280;48456;54.242;10.280;2022-12-18T09:52:20;102895.66;;;-7.21;100.00
62418;BME280;48456;54.242;10.280;2022-12-18T09:54:53;102895.22;;;-7.17;100.00
62418;BME280;48456;54.242;10.280;2022-12-18T09:57:21;102885.84;;;-7.07;100.00
62418;BME280;48456;54.242;10.280;2022-12-18T10:00:22;102881.34;;;-7.01;100.00
62418;BME280;48456;54.242;10.280;2022-12-18T10:02:40;102891.50;;;-6.94;100.00
62418;BME280;48456;54.242;10.280;2022-12-18T10:05:07;102895.28;;;-6.90;100.00
62418;BME280;48456;54.242;10.280;2022-12-18T10:13:09;102903.06;;;-6.63;100.00
62418;BME280;48456;54.242;10.280;2022-12-18T10:15:47;102908.66;;;-6.59;100.00
62418;BME280;48456;54.242;10.280;2022-12-18T10:21:00;102907.91;;;-6.49;100.00
62418;BME280;48456;54.242;10.280;2022-12-18T10:26:13;102895.94;;;-6.40;100.00
62418;BME280;48456;54.242;10.280;2022-12-18T10:28:40;102894.56;;;-6.27;100.00
62418;BME280;48456;54.242;10.280;2022-12-18T10:31:12;102893.50;;;-6.20;100.00
62418;BME280;48456;54.242;10.280;2022-12-18T10:33:42;102900.31;;;-6.03;100.00
62418;BME280;48456;54.242;10.280;2022-12-18T10:36:08;102896.78;;;-5.95;100.00
62418;BME280;48456;54.242;10.280;2022-12-18T10:38:35;102907.69;;;-5.89;100.00
62418;BME280;48456;54.242;10.280;2022-12-18T10:43:31;102913.75;;;-5.79;100.00
62418;BME280;48456;54.242;10.280;2022-12-18T10:48:36;102922.53;;;-5.68;100.00
62418;BME280;48456;54.242;10.280;2022-12-18T10:51:03;102913.41;;;-5.65;100.00
62418;BME280;48456;54.242;10.280;2022-12-18T10:53:38;102909.00;;;-5.66;100.00
62418;BME280;48456;54.242;10.280;2022-12-18T10:56:06;102909.59;;;-5.59;100.00
62418;BME280;48456;54.242;10.280;2022-12-18T10:58:33;102911.41;;;-5.58;100.00
62418;BME280;48456;54.242;10.280;2022-12-18T11:03:34;102904.41;;;-5.51;100.00
62418;BME280;48456;54.242;10.280;2022-12-18T11:06:12;102898.31;;;-5.42;100.00
62418;BME280;48456;54.242;10.280;2022-12-18T11:08:38;102910.41;;;-5.32;100.00
62418;BME280;48456;54.242;10.280;2022-12-18T11:11:07;102904.91;;;-5.27;100.00
62418;BME280;48456;54.242;10.280;2022-12-18T11:13:36;102911.16;;;-5.33;100.00
62418;BME280;48456;54.242;10.280;2022-12-18T11:16:02;102912.22;;;-5.31;100.00
62418;BME280;48456;54.242;10.280;2022-12-18T11:18:30;102908.41;;;-5.26;100.00
62418;BME280;48456;54.242;10.280;2022-12-18T11:21:11;102909.56;;;-5.14;100.00
62418;BME280;48456;54.242;10.280;2022-12-18T11:23:43;102902.53;;;-5.06;100.00
62418;BME280;48456;54.242;10.280;2022-12-18T11:26:12;102910.75;;;-5.10;100.00
62418;BME280;48456;54.242;10.280;2022-12-18T11:33:42;102887.75;;;-5.26;100.00
62418;BME280;48456;54.242;10.280;2022-12-18T11:36:34;102886.22;;;-5.24;100.00
62418;BME280;48456;54.242;10.280;2022-12-18T11:39:07;102881.41;;;-5.30;100.00
62418;BME280;48456;54.242;10.280;2022-12-18T11:41:41;102890.19;;;-5.28;100.00
62418;BME280;48456;54.242;10.280;2022-12-18T11:47:03;102888.81;;;-5.24;100.00
62418;BME280;48456;54.242;10.280;2022-12-18T11:49:35;102889.06;;;-5.12;100.00
62418;BME280;48456;54.242;10.280;2022-12-18T11:52:04;102893.75;;;-5.08;100.00
62418;BME280;48456;54.242;10.280;2022-12-18T11:54:35;102891.44;;;-5.05;100.00
62418;BME280;48456;54.242;10.280;2022-12-18T11:57:18;102880.78;;;-4.99;100.00
62418;BME280;48456;54.242;10.280;2022-12-18T11:59:51;102881.38;;;-4.93;100.00
62418;BME280;48456;54.242;10.280;2022-12-18T12:02:32;102891.22;;;-4.89;100.00
62418;BME280;48456;54.242;10.280;2022-12-18T12:07:44;102882.38;;;-4.63;100.00
62418;BME280;48456;54.242;10.280;2022-12-18T12:21:03;102844.09;;;-4.67;100.00
62418;BME280;48456;54.242;10.280;2022-12-18T12:28:36;102849.63;;;-4.73;100.00
62418;BME280;48456;54.242;10.280;2022-12-18T12:31:26;102844.25;;;-4.85;100.00
62418;BME280;48456;54.242;10.280;2022-12-18T12:34:04;102839.81;;;-4.86;100.00
62418;BME280;48456;54.242;10.280;2022-12-18T12:39:07;102838.16;;;-4.85;100.00
62418;BME280;48456;54.242;10.280;2022-12-18T12:41:37;102833.69;;;-4.77;100.00
62418;BME280;48456;54.242;10.280;2022-12-18T12:44:33;102826.31;;;-4.64;100.00
62418;BME280;48456;54.242;10.280;2022-12-18T12:47:04;102815.06;;;-4.64;100.00
62418;BME280;48456;54.242;10.280;2022-12-18T12:49:33;102812.00;;;-4.60;100.00
62418;BME280;48456;54.242;10.280;2022-12-18T12:52:07;102808.78;;;-4.58;100.00
62418;BME280;48456;54.242;10.280;2022-12-18T12:54:37;102812.69;;;-4.52;100.00
62418;BME280;48456;54.242;10.280;2022-12-18T13:04:47;102784.22;;;-4.63;100.00
62418;BME280;48456;54.242;10.280;2022-12-18T13:07:20;102784.22;;;-4.63;100.00
62418;BME280;48456;54.242;10.280;2022-12-18T13:12:48;102762.78;;;-4.62;100.00
62418;BME280;48456;54.242;10.280;2022-12-18T13:15:25;102752.06;;;-4.66;100.00
62418;BME280;48456;54.242;10.280;2022-12-18T13:20:33;102755.34;;;-4.48;100.00
62418;BME280;48456;54.242;10.280;2022-12-18T13:23:00;102753.53;;;-4.49;100.00
62418;BME280;48456;54.242;10.280;2022-12-18T13:25:36;102759.63;;;-4.49;100.00
62418;BME280;48456;54.242;10.280;2022-12-18T13:28:10;102767.72;;;-4.54;100.00
62418;BME280;48456;54.242;10.280;2022-12-18T13:30:41;102769.59;;;-4.62;100.00
62418;BME280;48456;54.242;10.280;2022-12-18T13:38:23;102781.78;;;-4.80;100.00
62418;BME280;48456;54.242;10.280;2022-12-18T13:48:18;102770.59;;;-5.09;100.00
62418;BME280;48456;54.242;10.280;2022-12-18T13:53:46;102778.06;;;-5.31;100.00
62418;BME280;48456;54.242;10.280;2022-12-18T13:56:24;102774.16;;;-5.37;100.00
62418;BME280;48456;54.242;10.280;2022-12-18T14:01:34;102783.03;;;-5.52;100.00
62418;BME280;48456;54.242;10.280;2022-12-18T14:04:11;102779.13;;;-5.57;100.00
62418;BME280;48456;54.242;10.280;2022-12-18T14:06:38;102782.66;;;-5.66;100.00
62418;BME280;48456;54.242;10.280;2022-12-18T14:09:04;102772.38;;;-5.75;100.00
62418;BME280;48456;54.242;10.280;2022-12-18T14:11:34;102787.91;;;-5.83;100.00
62418;BME280;48456;54.242;10.280;2022-12-18T14:14:01;102792.47;;;-5.90;100.00
62418;BME280;48456;54.242;10.280;2022-12-18T14:16:27;102787.63;;;-5.95;100.00
62418;BME280;48456;54.242;10.280;2022-12-18T14:18:55;102788.09;;;-6.00;100.00
62418;BME280;48456;54.242;10.280;2022-12-18T14:21:31;102792.19;;;-6.02;100.00
62418;BME280;48456;54.242;10.280;2022-12-18T14:26:42;102787.88;;;-6.11;100.00